createdAt,value
2023-01-01T00:08:24.182Z,67.58
2023-01-01T00:20:26.654Z,71.88
2023-01-01T00:32:25.108Z,76.89
2023-01-01T00:44:25.471Z,69.67
2023-01-01T00:56:26.008Z,74.97
2023-01-01T01:08:30.668Z,77.79
2023-01-01T01:20:26.858Z,79.80
2023-01-01T01:32:27.303Z,79.14
2023-01-01T01:44:27.756Z,80.34
2023-01-01T01:56:28.190Z,81.73
2023-01-01T02:08:28.649Z,81.44
2023-01-01T02:20:29.097Z,81.43
2023-01-01T02:32:29.650Z,83.22
2023-01-01T02:44:30.056Z,84.13
2023-01-01T02:56:30.591Z,82.61
2023-01-01T03:08:30.927Z,84.27
2023-01-01T03:20:31.677Z,84.94
2023-01-01T03:32:31.829Z,83.73
2023-01-01T03:44:32.253Z,84.94
2023-01-01T03:56:32.712Z,85.93
2023-01-01T04:08:33.227Z,81.55
2023-01-01T04:20:33.640Z,84.28
2023-01-01T04:32:34.113Z,84.28
2023-01-01T04:44:34.554Z,87.07
2023-01-01T04:56:35.033Z,89.87
2023-01-01T05:08:35.459Z,87.45
2023-01-01T05:20:35.881Z,85.21
2023-01-01T05:32:36.325Z,88.41
2023-01-01T05:44:36.798Z,88.98
2023-01-01T05:56:37.227Z,87.50
2023-01-01T06:08:37.706Z,91.47
2023-01-01T06:20:38.125Z,87.69
2023-01-01T06:32:38.663Z,90.20
2023-01-01T06:44:39.055Z,88.54
2023-01-01T06:56:39.490Z,88.57
2023-01-01T07:08:39.984Z,86.63
2023-01-01T07:20:40.434Z,89.22
2023-01-01T07:32:40.866Z,89.64
2023-01-01T07:44:41.284Z,86.72
2023-01-01T07:56:41.768Z,86.46
2023-01-01T08:08:42.235Z,90.45
2023-01-01T08:20:42.693Z,85.32
2023-01-01T08:32:43.138Z,85.47
2023-01-01T08:44:43.571Z,85.80
2023-01-01T08:56:44.041Z,85.84
2023-01-01T09:08:44.492Z,83.94
2023-01-01T09:20:44.950Z,80.21
2023-01-01T09:32:45.361Z,82.90
2023-01-01T09:44:45.857Z,79.93
2023-01-01T09:56:46.269Z,78.26
2023-01-01T10:08:46.736Z,73.77
2023-01-01T10:20:47.198Z,68.46
2023-01-01T10:32:47.665Z,71.07
2023-01-01T10:44:48.121Z,66.49
2023-01-01T10:56:48.559Z,66.87
2023-01-01T11:08:49.047Z,62.37
2023-01-01T11:20:49.524Z,63.07
2023-01-01T11:32:55.207Z,62.89
2023-01-01T11:44:50.397Z,62.34
2023-01-01T11:56:50.886Z,61.89
2023-01-01T12:08:51.360Z,61.64
2023-01-01T12:20:51.748Z,64.46
2023-01-01T12:32:52.233Z,60.46
2023-01-01T12:44:52.700Z,66.08
2023-01-01T12:56:53.153Z,67.30
2023-01-01T13:08:53.610Z,68.13
2023-01-01T13:20:54.053Z,69.54
2023-01-01T13:32:54.505Z,72.43
2023-01-01T13:44:54.959Z,74.08
2023-01-01T13:56:55.411Z,74.84
2023-01-01T14:08:55.877Z,76.59
2023-01-01T14:20:56.311Z,76.94
2023-01-01T14:32:56.767Z,77.88
2023-01-01T14:44:57.226Z,78.82
2023-01-01T14:56:57.648Z,79.13
2023-01-01T15:08:58.142Z,81.01
2023-01-01T15:20:58.573Z,83.97
2023-01-01T15:32:59.016Z,84.19
2023-01-01T15:44:59.482Z,82.17
2023-01-01T15:56:59.947Z,88.00
2023-01-01T16:09:00.417Z,84.80
2023-01-01T16:21:00.859Z,85.08
2023-01-01T16:33:01.303Z,85.75
2023-01-01T16:45:01.731Z,86.13
2023-01-01T16:57:02.250Z,88.67
2023-01-01T17:09:02.622Z,88.56
2023-01-01T17:21:03.135Z,91.13
2023-01-01T17:33:03.648Z,87.29
2023-01-01T17:45:04.049Z,86.96
2023-01-01T17:57:04.459Z,87.84
2023-01-01T18:09:04.899Z,86.20
2023-01-01T18:21:05.371Z,89.83
2023-01-01T18:33:05.824Z,91.07
2023-01-01T18:45:06.254Z,90.01
2023-01-01T18:57:06.699Z,90.62
2023-01-01T19:09:07.178Z,87.91
2023-01-01T19:21:07.664Z,86.33
2023-01-01T19:33:08.087Z,88.55
2023-01-01T19:45:08.590Z,92.77
2023-01-01T19:57:09.001Z,88.29
2023-01-01T20:09:09.440Z,89.94
2023-01-01T20:21:09.905Z,86.95
2023-01-01T20:33:10.423Z,92.81
2023-01-01T20:45:10.819Z,92.19
2023-01-01T20:57:11.287Z,91.12
2023-01-01T21:09:11.695Z,90.53
2023-01-01T21:21:12.141Z,93.45
2023-01-01T21:33:12.578Z,90.99
2023-01-01T21:45:13.064Z,91.12
2023-01-01T21:57:13.500Z,90.06
2023-01-01T22:09:13.942Z,90.23
2023-01-01T22:21:14.396Z,88.87
2023-01-01T22:33:14.868Z,90.85
2023-01-01T22:45:15.279Z,93.89
2023-01-01T22:57:15.739Z,89.34
2023-01-01T23:09:16.263Z,91.68
2023-01-01T23:21:21.385Z,90.94
2023-01-01T23:33:17.130Z,91.30
2023-01-01T23:45:17.584Z,95.20
2023-01-01T23:57:18.028Z,92.15
